Central Oregon RPC :: ALTURASA

liberation: 2022-05-30  06:45     latitude: 41.489838     longitude: -120.548417 55 birds
# LOFT PRING MILES ARRIVAL SPEED ToWin
1 STEELE LOFT AU21-CORP-121 198.722 2022-05-30 11:05:41.183 1341.654 00:00:00
2 STEELE LOFT AU-20-CORP-5017 198.722 2022-05-30 11:05:43.036 1341.495 00:00:02
3 ROCKY TOP AU19-CORP-4400 192.104 2022-05-30 10:58:58.782 1331.220 00:01:59
4 LAYPORT LOFT AU21-CORP-0694 198.202 2022-05-30 11:07:08.572 1330.708 00:02:08
5 LAYPORT LOFT AU21-CORP-0658 198.202 2022-05-30 11:07:10.271 1330.564 00:02:10
6 ROCKY TOP AU19-CORP-4474 192.104 2022-05-30 10:59:34.902 1328.072 00:02:35
7 LAYPORT LOFT AU21-CORP-1190 198.202 2022-05-30 11:08:07.073 1325.777 00:03:07
8 ROCKY TOP AU18-CORP-3300 192.104 2022-05-30 11:00:44.865 1322.017 00:03:45
9 ROCKY TOP AU18-CORP-3353 192.104 2022-05-30 11:01:15.333 1319.397 00:04:15
10 LAYPORT LOFT AU21-CORP-1003 198.202 2022-05-30 11:09:29.197 1318.916 00:04:29
11 ROCKY TOP AU19-CORP-4454 192.104 2022-05-30 11:01:41.497 1317.156 00:04:41
12 ROCKY TOP AU19-CORP-4435 192.104 2022-05-30 11:02:06.720 1315.002 00:05:06
13 STEELE LOFT AU21-CORP-177 198.722 2022-05-30 11:13:31.094 1302.522 00:07:50
14 ROCKY TOP AU21-CORP-0765 192.104 2022-05-30 11:12:07.108 1265.741 00:15:07
15 RUETER FAMILY LOFT AU20-CORP-4574 226.862 2022-05-30 12:00:58.300 1263.649 00:18:22
16 ROCKY TOP AU18-CORP-3343 192.104 2022-05-30 11:12:35.634 1263.492 00:15:35
17 ROCKY TOP AU19-CORP-4473 192.104 2022-05-30 11:17:35.716 1240.311 00:20:35
18 TOPIGEONUSA AU19-CORP-5140 198.536 2022-05-30 11:26:44.465 1240.227 00:21:18
19 LAYPORT LOFT AU21-CORP-0666 198.202 2022-05-30 11:27:29.709 1234.837 00:22:29
20 ROCKY TOP AU19-CORP-4405 192.104 2022-05-30 11:21:06.114 1224.558 00:24:06
21 ROCKY TOP AU17-CORP-798 192.104 2022-05-30 11:23:05.703 1215.782 00:26:05
22 STEELE LOFT AU20-CORP-5043 198.722 2022-05-30 11:33:01.489 1214.308 00:27:20
23 ROCKY TOP AU17-OTC-317 192.104 2022-05-30 11:26:05.800 1202.799 00:29:06
24 LAYPORT LOFT AU21-CORP-1252 198.202 2022-05-30 11:37:10.043 1193.958 00:32:10
25 AMERICAN LOFT AU19-CORP-4735 197.089 2022-05-30 11:38:09.401 1183.247 00:34:37
26 LAYPORT LOFT AU21-CORP-1271 198.202 2022-05-30 11:40:17.483 1181.327 00:35:17
27 RUETER FAMILY LOFT AU20-CORP-4527 226.862 2022-05-30 12:26:46.143 1168.267 00:44:10
28 TIM GRAVES AU16-CORP-602 191.057 2022-05-30 11:44:21.102 1123.298 00:48:43
29 RUETER FAMILY LOFT AU18-CORP-2643 226.862 2022-05-30 12:40:46.328 1122.284 00:58:10
30 STEELE LOFT AU20-CORP-5002 198.722 2022-05-30 12:05:00.700 1092.932 00:59:20
31 LAYPORT LOFT AU21-CORP-0688 198.202 2022-05-30 12:07:45.626 1080.788 01:02:45
32 RUETER FAMILY LOFT AU20-CORP-4635 226.862 2022-05-30 12:58:35.073 1068.774 01:15:59
33 LAYPORT LOFT AU21-CORP-1261 198.202 2022-05-30 12:22:11.723 1034.521 01:17:11
34 AMERICAN LOFT AU19-CORP-4647 197.089 2022-05-30 12:40:06.657 976.813 01:36:34
35 LAYPORT LOFT AU21-CORP-0667 198.202 2022-05-30 13:07:32.055 911.907 02:02:32
36 TIM GRAVES AU16-CORP-6702 191.057 2022-05-30 13:00:25.160 895.695 02:04:47
37 LAYPORT LOFT AU21-CORP-1164 198.202 2022-05-30 13:29:12.860 862.997 02:24:13
38 RUETER FAMILY LOFT AU19-CORP-5456 226.862 2022-05-30 14:40:21.270 839.957 02:57:45
39 RUETER FAMILY LOFT AU16-CORP-6251 226.862 2022-05-30 15:29:17.620 761.553 03:46:42
40 TOPIGEONUSA AU20-CORP-4868 198.536 2022-05-30 15:33:27.872 661.204 04:28:01
41 LAYPORT LOFT AU21-CORP-0631 198.202 2022-05-30 15:34:06.404 659.291 04:29:06
42 TIM GRAVES AU19-CBF-3498 191.057 2022-05-30 16:56:38.497 549.768 06:01:01
43 AMERICAN LOFT AU19-CORP-4706 197.089 2022-05-30 18:31:44.683 490.809 07:28:12
44 RUETER FAMILY LOFT AU21-CORP-985 226.862 2022-06-01 00:27:01.207 220.461 25:13:30
AMERICAN LOFT AU19-CORP-4605 0 0000-00-00 00:00:00.000 0.000 00:00:00
JACKSONS LOFT AU21-JEDD-35763 0 0000-00-00 00:00:00.000 0.000 00:00:00
JACKSONS LOFT AU21-JEDD-35768 0 0000-00-00 00:00:00.000 0.000 00:00:00
JACKSONS LOFT AU21-JEDD-35770 0 0000-00-00 00:00:00.000 0.000 00:00:00
JACKSONS LOFT AU21-JEDD-35771 0 0000-00-00 00:00:00.000 0.000 00:00:00
JACKSONS LOFT AU21-JEDD-49085 0 0000-00-00 00:00:00.000 0.000 00:00:00
JACKSONS LOFT AU21-JEDD-49087 0 0000-00-00 00:00:00.000 0.000 00:00:00
JACKSONS LOFT AU21-JEDD-49092 0 0000-00-00 00:00:00.000 0.000 00:00:00
RUETER FAMILY LOFT AU19-CORP-5331 0 0000-00-00 00:00:00.000 0.000 00:00:00
RUETER FAMILY LOFT AU21-CORP-807 0 0000-00-00 00:00:00.000 0.000 00:00:00
STEELE LOFT AU20-CORP-5032 0 0000-00-00 00:00:00.000 0.000 00:00:00